createdAt,value
2022-11-22T00:01:10.206Z,21.24
2022-11-22T00:03:36.800Z,21.26
2022-11-22T00:06:03.449Z,21.27
2022-11-22T00:08:30.195Z,21.30
2022-11-22T00:10:56.884Z,21.31
2022-11-22T00:13:23.486Z,21.32
2022-11-22T00:16:00.541Z,21.32
2022-11-22T00:18:27.636Z,21.33
2022-11-22T00:20:54.235Z,21.33
2022-11-22T00:23:20.897Z,21.32
2022-11-22T00:25:47.866Z,21.34
2022-11-22T00:28:14.508Z,21.34
2022-11-22T00:30:41.162Z,21.34
2022-11-22T00:33:07.854Z,21.35
2022-11-22T00:35:34.617Z,21.34
2022-11-22T00:38:01.341Z,21.35
2022-11-22T00:40:34.233Z,21.35
2022-11-22T00:43:00.815Z,21.36
2022-11-22T00:45:27.445Z,21.35
2022-11-22T00:47:54.102Z,21.35
2022-11-22T00:50:20.884Z,21.34
2022-11-22T00:52:47.527Z,21.34
2022-11-22T00:55:14.169Z,21.34
2022-11-22T00:57:40.751Z,21.33
2022-11-22T01:00:07.892Z,21.31
2022-11-22T01:02:34.598Z,21.29
2022-11-22T01:05:01.220Z,21.28
2022-11-22T01:07:27.939Z,21.27
2022-11-22T01:09:54.576Z,21.25
2022-11-22T01:12:21.255Z,21.23
2022-11-22T01:14:47.870Z,21.21
2022-11-22T01:17:14.755Z,21.20
2022-11-22T01:19:41.494Z,21.18
2022-11-22T01:22:08.140Z,21.19
2022-11-22T01:24:34.768Z,21.15
2022-11-22T01:27:01.528Z,21.13
2022-11-22T01:29:28.461Z,21.11
2022-11-22T01:31:55.380Z,21.08
2022-11-22T01:34:22.024Z,21.06
2022-11-22T01:36:48.659Z,21.03
2022-11-22T01:39:15.432Z,20.97
2022-11-22T01:41:42.111Z,20.93
2022-11-22T01:44:18.746Z,20.87
2022-11-22T01:46:45.547Z,20.84
2022-11-22T01:49:14.531Z,20.83
2022-11-22T01:51:42.568Z,20.81
2022-11-22T01:54:16.154Z,20.74
2022-11-22T01:56:44.799Z,20.74
2022-11-22T01:59:14.692Z,20.72
2022-11-22T02:01:41.489Z,20.73
2022-11-22T02:04:10.047Z,20.69
2022-11-22T02:06:48.624Z,20.65
2022-11-22T02:09:16.097Z,20.58
2022-11-22T02:11:46.969Z,20.56
2022-11-22T02:14:14.065Z,20.51
2022-11-22T02:16:42.494Z,20.51
2022-11-22T02:19:41.604Z,20.51
2022-11-22T02:22:26.854Z,20.45
2022-11-22T02:24:59.916Z,20.44
2022-11-22T02:27:26.625Z,20.40
2022-11-22T02:29:53.296Z,20.42
2022-11-22T02:32:20.076Z,20.44
2022-11-22T02:34:47.999Z,20.35
2022-11-22T02:37:29.029Z,20.32
2022-11-22T02:40:00.638Z,20.26
2022-11-22T02:42:29.218Z,20.22
2022-11-22T02:44:55.834Z,20.20
2022-11-22T02:47:22.522Z,20.15
2022-11-22T02:49:49.119Z,20.13
2022-11-22T02:52:18.784Z,20.09
2022-11-22T02:54:46.013Z,20.08
2022-11-22T02:57:16.988Z,20.03
2022-11-22T02:59:43.594Z,20.03
2022-11-22T03:02:10.254Z,20.01
2022-11-22T03:04:36.878Z,19.95
2022-11-22T03:07:04.728Z,20.01
2022-11-22T03:09:32.514Z,19.95
2022-11-22T03:11:59.753Z,19.94
2022-11-22T03:14:26.473Z,19.91
2022-11-22T03:16:53.137Z,19.86
2022-11-22T03:19:19.805Z,19.85
2022-11-22T03:21:46.553Z,19.85
2022-11-22T03:24:13.365Z,19.80
2022-11-22T03:26:39.983Z,19.78
2022-11-22T03:29:06.686Z,19.78
2022-11-22T03:31:33.523Z,19.77
2022-11-22T03:34:00.177Z,19.72
2022-11-22T03:36:26.737Z,19.71
2022-11-22T03:38:53.342Z,19.70
2022-11-22T03:41:20.035Z,19.66
2022-11-22T03:43:46.625Z,19.61
2022-11-22T03:46:17.630Z,19.60
2022-11-22T03:48:44.291Z,19.57
2022-11-22T03:51:11.059Z,19.53
2022-11-22T03:53:38.124Z,19.55
2022-11-22T03:56:05.027Z,19.52
2022-11-22T03:58:32.215Z,19.50
2022-11-22T04:00:59.392Z,19.49
2022-11-22T04:03:26.194Z,19.45
2022-11-22T04:05:52.909Z,19.43
2022-11-22T04:08:19.530Z,19.40
2022-11-22T04:10:46.178Z,19.38
2022-11-22T04:13:12.785Z,19.34
2022-11-22T04:15:39.368Z,19.34
2022-11-22T04:18:09.016Z,19.32
2022-11-22T04:20:54.212Z,19.31
2022-11-22T04:23:22.121Z,19.27
2022-11-22T04:25:50.632Z,19.23
2022-11-22T04:28:18.798Z,19.24
2022-11-22T04:31:04.027Z,19.21
2022-11-22T04:33:30.817Z,19.19
2022-11-22T04:35:57.548Z,19.15
2022-11-22T04:38:24.367Z,19.14
2022-11-22T04:40:51.026Z,19.14
2022-11-22T04:43:46.257Z,19.12
2022-11-22T04:46:13.296Z,19.10
2022-11-22T04:48:40.567Z,19.09
2022-11-22T04:51:26.377Z,19.06
2022-11-22T04:53:52.974Z,19.04
2022-11-22T04:56:19.612Z,19.03
2022-11-22T04:58:46.250Z,19.01
2022-11-22T05:01:12.939Z,18.98
2022-11-22T05:03:39.556Z,18.97
2022-11-22T05:06:06.351Z,18.98
2022-11-22T05:08:33.099Z,18.96
2022-11-22T05:11:00.112Z,18.96
2022-11-22T05:13:34.285Z,18.92
2022-11-22T05:16:01.910Z,18.93
2022-11-22T05:18:28.589Z,18.92
2022-11-22T05:20:55.336Z,18.89
2022-11-22T05:23:40.948Z,18.93
2022-11-22T05:26:08.098Z,19.02
2022-11-22T05:28:35.900Z,19.09
2022-11-22T05:31:13.132Z,19.14
2022-11-22T05:33:40.680Z,19.16
2022-11-22T05:36:08.031Z,19.19
2022-11-22T05:38:35.735Z,19.21
2022-11-22T05:41:03.391Z,19.23
2022-11-22T05:43:30.329Z,19.26
2022-11-22T05:45:56.906Z,19.29
2022-11-22T05:48:23.704Z,19.32
2022-11-22T05:50:50.274Z,19.35
2022-11-22T05:53:16.993Z,19.37
2022-11-22T05:55:43.651Z,19.40
2022-11-22T05:58:10.194Z,19.45
2022-11-22T06:00:36.814Z,19.48
2022-11-22T06:03:04.231Z,19.53
2022-11-22T06:05:31.236Z,19.58
2022-11-22T06:07:59.664Z,19.62
2022-11-22T06:10:26.899Z,19.66
2022-11-22T06:12:53.533Z,19.71
2022-11-22T06:15:20.199Z,19.75
2022-11-22T06:17:46.895Z,19.79
2022-11-22T06:20:13.465Z,19.83
2022-11-22T06:22:40.089Z,19.87
2022-11-22T06:25:07.463Z,19.91
2022-11-22T06:27:34.081Z,19.94
2022-11-22T06:30:00.793Z,19.99
2022-11-22T06:32:27.373Z,20.03
2022-11-22T06:34:53.962Z,20.07
2022-11-22T06:37:20.529Z,20.12
2022-11-22T06:39:47.107Z,20.16
2022-11-22T06:42:13.761Z,20.20
2022-11-22T06:44:40.442Z,20.25
2022-11-22T06:47:11.875Z,20.29
2022-11-22T06:49:38.510Z,20.31
2022-11-22T06:52:05.434Z,20.37
2022-11-22T06:54:32.150Z,20.41
2022-11-22T06:56:58.747Z,20.45
2022-11-22T06:59:25.406Z,20.49
2022-11-22T07:01:52.145Z,20.53
2022-11-22T07:04:18.802Z,20.56
2022-11-22T07:06:45.907Z,20.60
2022-11-22T07:09:12.542Z,20.64
2022-11-22T07:11:39.716Z,20.68
2022-11-22T07:14:08.671Z,20.71
2022-11-22T07:16:35.708Z,20.74
2022-11-22T07:19:02.330Z,20.79
2022-11-22T07:21:28.948Z,20.83
2022-11-22T07:23:56.272Z,20.89
2022-11-22T07:26:23.965Z,20.92
2022-11-22T07:28:50.662Z,20.97
2022-11-22T07:31:17.752Z,21.00
2022-11-22T07:33:44.836Z,21.03
2022-11-22T07:36:13.231Z,21.06
2022-11-22T07:38:40.150Z,21.10
2022-11-22T07:41:07.165Z,21.13
2022-11-22T07:43:34.287Z,21.16
2022-11-22T07:46:01.720Z,21.18
2022-11-22T07:48:28.381Z,20.92
2022-11-22T07:50:55.340Z,21.02
2022-11-22T07:53:21.972Z,21.00
2022-11-22T07:55:48.609Z,21.00
2022-11-22T07:58:15.209Z,21.01
2022-11-22T08:00:41.799Z,21.02
2022-11-22T08:03:09.186Z,21.03
2022-11-22T08:05:36.031Z,21.02
2022-11-22T08:08:02.646Z,21.03
2022-11-22T08:10:29.396Z,21.03
2022-11-22T08:12:58.691Z,21.03
2022-11-22T08:15:25.297Z,21.04
2022-11-22T08:17:52.090Z,21.04
2022-11-22T08:20:18.689Z,21.06
2022-11-22T08:22:45.264Z,21.08
2022-11-22T08:25:14.823Z,21.11
2022-11-22T08:27:42.699Z,21.13
2022-11-22T08:30:12.401Z,20.74
2022-11-22T08:32:39.224Z,20.79
2022-11-22T08:35:06.184Z,20.80
2022-11-22T08:37:32.881Z,20.81
2022-11-22T08:39:59.550Z,20.84
2022-11-22T08:42:26.283Z,20.86
2022-11-22T08:44:52.912Z,20.88
2022-11-22T08:47:22.668Z,20.89
2022-11-22T08:49:49.270Z,20.90
2022-11-22T08:52:15.955Z,20.91
2022-11-22T08:54:42.635Z,20.89
2022-11-22T08:57:18.422Z,20.92
2022-11-22T08:59:45.109Z,20.90
2022-11-22T09:02:11.734Z,20.91
2022-11-22T09:04:38.392Z,20.90
2022-11-22T09:10:01.331Z,20.89
2022-11-22T09:12:27.967Z,20.88
2022-11-22T09:14:54.517Z,20.88
2022-11-22T09:17:22.650Z,20.86
2022-11-22T09:19:49.329Z,20.86
2022-11-22T09:22:16.044Z,20.85
2022-11-22T09:24:42.745Z,20.84
2022-11-22T09:27:19.796Z,20.86
2022-11-22T09:29:46.439Z,20.86
2022-11-22T09:32:13.069Z,20.86
2022-11-22T09:34:39.702Z,20.88
2022-11-22T09:37:18.713Z,20.89
2022-11-22T09:39:48.825Z,20.89
2022-11-22T09:42:34.257Z,20.90
2022-11-22T09:45:03.691Z,20.93
2022-11-22T09:47:39.452Z,20.92
2022-11-22T09:50:15.386Z,20.94
2022-11-22T09:52:42.128Z,20.95
2022-11-22T09:55:23.891Z,20.97
2022-11-22T09:57:57.317Z,20.98
2022-11-22T10:00:26.174Z,21.00
2022-11-22T10:03:00.646Z,21.00
2022-11-22T10:05:33.879Z,21.02
2022-11-22T10:08:11.186Z,21.01
2022-11-22T10:10:42.205Z,21.02
2022-11-22T10:13:17.319Z,21.01
2022-11-22T10:15:57.288Z,21.03
2022-11-22T10:18:35.829Z,21.04
2022-11-22T10:21:02.987Z,21.03
2022-11-22T10:23:29.627Z,21.01
2022-11-22T10:26:00.234Z,21.03
2022-11-22T10:28:32.794Z,21.03
2022-11-22T10:31:05.538Z,21.01
2022-11-22T10:33:46.276Z,21.00
2022-11-22T10:36:21.834Z,20.99
2022-11-22T10:38:56.097Z,20.99
2022-11-22T10:41:37.870Z,20.96
2022-11-22T10:44:07.437Z,20.95
2022-11-22T10:47:04.484Z,20.92
2022-11-22T10:49:50.056Z,20.89
2022-11-22T10:52:19.420Z,20.88
2022-11-22T10:55:04.741Z,20.88
2022-11-22T10:57:56.685Z,20.85
2022-11-22T11:00:27.352Z,20.83
2022-11-22T11:02:54.104Z,20.83
2022-11-22T11:05:25.648Z,20.80
2022-11-22T11:07:56.629Z,20.79
2022-11-22T11:10:34.554Z,20.75
2022-11-22T11:13:25.132Z,20.70
2022-11-22T11:15:56.189Z,20.67
2022-11-22T11:18:33.114Z,20.64
2022-11-22T11:20:59.800Z,20.63
2022-11-22T11:23:26.439Z,20.59
2022-11-22T11:25:53.210Z,20.54
2022-11-22T11:28:21.772Z,20.54
2022-11-22T11:31:21.973Z,20.54
2022-11-22T11:33:51.400Z,20.48
2022-11-22T11:36:20.504Z,20.45
2022-11-22T11:38:48.810Z,20.40
2022-11-22T11:41:24.853Z,20.37
2022-11-22T11:43:52.657Z,20.36
2022-11-22T11:46:21.024Z,20.32
2022-11-22T11:48:48.732Z,20.31
2022-11-22T11:51:18.256Z,20.30
2022-11-22T11:53:53.771Z,20.29
2022-11-22T11:56:21.996Z,20.29
2022-11-22T11:58:53.451Z,20.26
2022-11-22T12:01:21.032Z,20.25
2022-11-22T12:03:52.024Z,20.22
2022-11-22T12:06:18.755Z,20.19
2022-11-22T12:08:48.699Z,20.17
2022-11-22T12:11:20.895Z,20.15
2022-11-22T12:16:43.434Z,20.09
2022-11-22T12:19:25.338Z,20.07
2022-11-22T12:22:03.721Z,20.15
2022-11-22T12:24:56.998Z,20.23
2022-11-22T12:27:28.473Z,20.26
2022-11-22T12:29:55.154Z,20.26
2022-11-22T12:32:40.417Z,20.29
2022-11-22T12:35:33.422Z,20.31
2022-11-22T12:38:11.755Z,20.35
2022-11-22T12:40:38.361Z,20.39
2022-11-22T12:43:08.426Z,20.44
2022-11-22T12:45:36.995Z,20.47
2022-11-22T12:48:05.874Z,20.49
2022-11-22T12:50:50.431Z,20.54
2022-11-22T12:53:23.159Z,20.58
2022-11-22T12:55:53.416Z,20.64
2022-11-22T12:58:20.052Z,20.67
2022-11-22T13:01:13.042Z,20.70
2022-11-22T13:03:44.846Z,20.73
2022-11-22T13:06:11.791Z,20.76
2022-11-22T13:08:38.688Z,20.80
2022-11-22T13:11:12.427Z,20.84
2022-11-22T13:13:47.831Z,20.88
2022-11-22T13:16:14.992Z,20.91
2022-11-22T13:18:55.878Z,20.95
2022-11-22T13:21:27.578Z,21.00
2022-11-22T13:24:23.667Z,21.01
2022-11-22T13:26:53.427Z,21.05
2022-11-22T13:29:25.317Z,21.08
2022-11-22T13:32:01.055Z,21.09
2022-11-22T13:34:28.503Z,21.11
2022-11-22T13:37:01.649Z,21.12
2022-11-22T13:39:28.758Z,21.14
2022-11-22T13:41:58.258Z,21.15
2022-11-22T13:44:24.859Z,21.16
2022-11-22T13:47:02.388Z,21.16
2022-11-22T13:49:47.984Z,21.16
2022-11-22T13:52:15.621Z,21.17
2022-11-22T13:54:48.157Z,21.17
2022-11-22T13:57:27.193Z,21.17
2022-11-22T14:00:15.350Z,21.16
2022-11-22T14:02:53.525Z,21.15
2022-11-22T14:05:20.140Z,21.14
2022-11-22T14:07:50.764Z,21.13
2022-11-22T14:10:32.746Z,21.10
2022-11-22T14:12:59.959Z,21.09
2022-11-22T14:15:45.329Z,21.09
2022-11-22T14:18:20.945Z,21.07
2022-11-22T14:21:03.158Z,21.05
2022-11-22T14:23:35.740Z,21.01
2022-11-22T14:26:08.121Z,21.01
2022-11-22T14:28:54.398Z,21.01
2022-11-22T14:31:23.404Z,20.97
2022-11-22T14:34:16.163Z,20.96
2022-11-22T14:36:43.102Z,20.93
2022-11-22T14:39:33.534Z,20.91
2022-11-22T14:42:00.756Z,20.89
2022-11-22T14:44:33.617Z,20.84
2022-11-22T14:47:20.144Z,20.81
2022-11-22T14:49:48.540Z,20.78
2022-11-22T14:52:21.076Z,20.76
2022-11-22T14:54:49.705Z,20.74
2022-11-22T14:57:19.253Z,20.71
2022-11-22T15:00:01.146Z,20.67
2022-11-22T15:02:47.005Z,20.64
2022-11-22T15:09:15.083Z,20.60
2022-11-22T15:09:23.700Z,20.57
2022-11-22T15:11:27.509Z,20.57
2022-11-22T15:14:08.884Z,20.54
2022-11-22T15:59:40.457Z,20.79
2022-11-22T16:02:19.703Z,20.82
2022-11-22T16:06:03.489Z,20.84
2022-11-22T16:07:48.395Z,20.89
2022-11-22T16:10:26.362Z,20.90
2022-11-22T16:12:53.289Z,20.92
2022-11-22T16:15:27.893Z,20.95
2022-11-22T16:18:20.703Z,20.97
2022-11-22T16:21:01.727Z,20.96
2022-11-22T16:23:29.223Z,20.99
2022-11-22T16:25:57.884Z,20.98
2022-11-22T16:28:34.899Z,21.00
2022-11-22T16:31:07.066Z,21.00
2022-11-22T16:33:34.079Z,21.01
2022-11-22T16:36:02.520Z,21.00
2022-11-22T16:38:29.452Z,21.01
2022-11-22T16:40:57.401Z,21.00
2022-11-22T16:43:24.937Z,21.00
2022-11-22T16:45:51.559Z,20.98
2022-11-22T16:48:31.725Z,20.97
2022-11-22T16:51:05.653Z,20.96
2022-11-22T16:53:43.397Z,20.96
2022-11-22T16:56:18.735Z,20.95
2022-11-22T16:58:45.801Z,20.98
2022-11-22T17:01:16.427Z,20.99
2022-11-22T17:03:45.736Z,21.02
2022-11-22T17:06:17.736Z,21.03
2022-11-22T17:08:48.324Z,21.05
2022-11-22T17:11:15.962Z,21.06
2022-11-22T17:13:42.723Z,21.07
2022-11-22T17:16:09.966Z,21.06
2022-11-22T17:18:37.060Z,21.07
2022-11-22T17:21:05.405Z,21.08
2022-11-22T17:23:34.132Z,21.09
2022-11-22T17:26:00.828Z,21.08
2022-11-22T17:28:27.423Z,21.07
2022-11-22T17:30:54.780Z,21.08
2022-11-22T17:33:21.397Z,21.07
2022-11-22T17:35:48.018Z,21.06
2022-11-22T17:38:15.889Z,21.07
2022-11-22T17:40:42.508Z,21.06
2022-11-22T17:43:09.690Z,21.05
2022-11-22T17:45:42.607Z,21.03
2022-11-22T17:48:10.166Z,21.03
2022-11-22T17:50:36.784Z,21.04
2022-11-22T17:53:03.406Z,21.03
2022-11-22T17:55:42.738Z,21.09
2022-11-22T17:58:16.808Z,21.08
2022-11-22T18:00:43.420Z,21.08
2022-11-22T18:03:10.039Z,21.07
2022-11-22T18:05:41.065Z,21.05
2022-11-22T18:08:07.722Z,21.06
2022-11-22T18:10:35.413Z,21.05
2022-11-22T18:15:52.161Z,21.01
2022-11-22T18:18:48.641Z,21.03
2022-11-22T18:21:14.168Z,21.01
2022-11-22T18:23:43.576Z,20.96
2022-11-22T18:29:32.431Z,20.87
2022-11-22T18:31:54.260Z,20.81
2022-11-22T18:34:21.974Z,20.84
2022-11-22T18:36:55.305Z,20.78
2022-11-22T18:39:24.537Z,20.77
2022-11-22T18:41:51.101Z,20.75
2022-11-22T18:44:18.790Z,20.76
2022-11-22T18:46:45.426Z,20.73
2022-11-22T18:49:12.098Z,20.71
2022-11-22T18:51:38.828Z,20.68
2022-11-22T18:54:05.600Z,20.67
2022-11-22T18:56:32.604Z,20.66
2022-11-22T18:58:59.456Z,20.63
2022-11-22T19:01:26.525Z,20.57
2022-11-22T19:03:54.074Z,20.56
2022-11-22T19:06:20.713Z,20.54
2022-11-22T19:08:47.887Z,20.49
2022-11-22T19:11:15.830Z,20.49
2022-11-22T19:13:43.350Z,20.50
2022-11-22T19:16:13.795Z,20.47
2022-11-22T19:18:43.085Z,20.46
2022-11-22T19:21:17.111Z,20.45
2022-11-22T19:23:43.936Z,20.44
2022-11-22T19:26:11.703Z,20.42
2022-11-22T19:28:38.419Z,20.37
2022-11-22T19:31:09.404Z,20.37
2022-11-22T19:33:36.388Z,20.34
2022-11-22T19:36:04.327Z,20.31
2022-11-22T19:38:30.947Z,20.27
2022-11-22T19:40:57.651Z,20.26
2022-11-22T19:43:24.249Z,20.24
2022-11-22T19:45:50.862Z,20.23
2022-11-22T19:48:19.221Z,20.21
2022-11-22T19:50:45.868Z,20.18
2022-11-22T19:53:12.567Z,20.16
2022-11-22T19:55:45.161Z,20.14
2022-11-22T19:58:12.066Z,20.11
2022-11-22T20:00:38.913Z,20.09
2022-11-22T20:03:05.538Z,20.07
2022-11-22T20:05:32.652Z,20.05
2022-11-22T20:07:59.693Z,20.02
2022-11-22T20:10:26.374Z,19.97
2022-11-22T20:12:53.142Z,19.96
2022-11-22T20:15:20.182Z,19.93
2022-11-22T20:17:46.870Z,19.91
2022-11-22T20:20:13.680Z,19.90
2022-11-22T20:22:40.278Z,19.88
2022-11-22T20:25:07.187Z,19.86
2022-11-22T20:27:33.831Z,19.84
2022-11-22T20:30:01.476Z,19.82
2022-11-22T20:32:29.185Z,19.81
2022-11-22T20:34:55.802Z,19.80
2022-11-22T20:37:22.921Z,19.77
2022-11-22T20:39:49.519Z,19.76
2022-11-22T20:45:08.639Z,19.72
2022-11-22T20:47:35.829Z,19.73
2022-11-22T20:50:06.598Z,19.74
2022-11-22T20:52:33.353Z,19.78
2022-11-22T20:55:04.841Z,19.78
2022-11-22T20:57:37.524Z,19.79
2022-11-22T21:00:06.630Z,19.80
2022-11-22T21:02:36.405Z,19.82
2022-11-22T21:05:03.196Z,19.87
2022-11-22T21:07:29.846Z,19.90
2022-11-22T21:09:56.851Z,19.93
2022-11-22T21:12:23.803Z,19.97
2022-11-22T21:14:53.731Z,20.00
2022-11-22T21:17:41.892Z,20.05
2022-11-22T21:20:08.003Z,20.08
2022-11-22T21:22:34.714Z,20.12
2022-11-22T21:25:01.514Z,20.15
2022-11-22T21:27:28.377Z,20.19
2022-11-22T21:29:55.024Z,20.22
2022-11-22T21:32:22.017Z,20.25
2022-11-22T21:34:48.917Z,20.30
2022-11-22T21:37:16.030Z,20.33
2022-11-22T21:39:42.795Z,20.36
2022-11-22T21:42:09.618Z,20.41
2022-11-22T21:44:36.541Z,20.45
2022-11-22T21:47:05.455Z,20.48
2022-11-22T21:49:32.137Z,20.56
2022-11-22T21:51:59.443Z,20.59
2022-11-22T21:54:27.141Z,20.64
2022-11-22T21:56:55.567Z,20.68
2022-11-22T21:59:25.166Z,20.71
2022-11-22T22:01:51.855Z,20.73
2022-11-22T22:04:18.538Z,20.76
2022-11-22T22:06:46.383Z,20.77
2022-11-22T22:09:13.125Z,20.80
2022-11-22T22:11:42.062Z,20.82
2022-11-22T22:14:09.356Z,20.83
2022-11-22T22:16:36.102Z,20.85
2022-11-22T22:19:09.312Z,20.85
2022-11-22T22:21:36.543Z,20.85
2022-11-22T22:24:04.211Z,20.86
2022-11-22T22:26:31.787Z,20.88
2022-11-22T22:28:58.799Z,20.89
2022-11-22T22:31:27.094Z,20.88
2022-11-22T22:33:54.665Z,20.89
2022-11-22T22:36:21.451Z,20.90
2022-11-22T22:38:48.384Z,20.91
2022-11-22T22:41:14.979Z,20.94
2022-11-22T22:43:42.859Z,20.94
2022-11-22T22:46:12.638Z,20.97
2022-11-22T22:48:43.935Z,20.98
2022-11-22T22:51:15.641Z,20.99
2022-11-22T22:53:42.706Z,21.02
2022-11-22T22:56:10.127Z,21.04
2022-11-22T22:58:37.128Z,21.06
2022-11-22T23:01:08.190Z,21.05
2022-11-22T23:03:35.207Z,21.06
2022-11-22T23:06:05.984Z,21.10
2022-11-22T23:08:32.570Z,21.12
2022-11-22T23:11:03.126Z,21.13
2022-11-22T23:13:29.853Z,21.15
2022-11-22T23:15:58.866Z,21.16
2022-11-22T23:18:25.666Z,21.19
2022-11-22T23:20:52.529Z,21.20
2022-11-22T23:23:19.149Z,21.22
2022-11-22T23:25:45.798Z,21.23
2022-11-22T23:28:12.421Z,21.24
2022-11-22T23:30:38.992Z,21.25
2022-11-22T23:33:05.582Z,21.26
2022-11-22T23:35:34.593Z,21.27
2022-11-22T23:38:01.381Z,21.28
2022-11-22T23:40:28.015Z,21.29
2022-11-22T23:42:56.872Z,21.31
2022-11-22T23:45:23.528Z,21.31
2022-11-22T23:47:50.954Z,21.30
2022-11-22T23:50:17.805Z,21.29
2022-11-22T23:52:44.415Z,21.30
2022-11-22T23:55:11.325Z,21.29
2022-11-22T23:57:37.874Z,21.28
